РПИ Санкт-Петербург

РПИ Санкт-Петербург

РПИ Санкт-Петербург является структурным подразделением VATRUS.

В зону ответственности центра в сети VATSIM входит воздушное пространство над территориями Ленинградской, Новгородской, Псковской областей, Республики Карелия, а так же Вологодской области.

Руководитель РПИ

Alexey Kaznakov*

Инструкторы РПИ
Akhmadjon Saidov (Instructor)
Alexandr Vaganov * (Controller)
Alexey Kaznakov (Instructor)
Alexey Zimin (Instructor)
Ekaterina Romanova * (Controller)
Nikita Assorov (Instructor)
Stanley Yorke * (Controller)
Vadim Drachev * (Controller)
Yury Koryagin (Instructor)
Входит в состав
ЗЦ Санкт-Петербург

Диспетчеры РПИ

Диспетчер Рейтинг Допуски *
Akhmadjon Saidov Instructor ULLL_CTR, ULLL_CTR
Akmal Idrissov Senior Student ULLL_CTR *, ULLL_1_APP, ULLL_APP, ULLL_2_APP
Aleksandr Manko Senior Student ULLL_CTR *, ULLL_APP, ULLL_2_APP, ULLL_1_APP
Alexandr Vaganov Controller ULLL_CTR
Alexey Zimin Instructor ULLL_CTR
Ekaterina Romanova Controller ULLL_CTR, ULLL_CTR *, ULLL_CTR
Maxim Demidov Controller ULLL_CTR
Mihail Kolesnik Controller ULLL_CTR
Oleg Fedorinov Controller ULLL_CTR
Serafim Bedershtet Controller ULLL_CTR
Stanley Yorke Controller ULLL_CTR
Vadim Drachev Controller ULLL_CTR
Yan Stetsenko Senior Student ULLL_CTR *
Aleksandr Mirtov Student ULLI_GND
Alexander Loginov Student 2 ULLI_R_APP*
Alexandr Sosnovsky Student ULLI_1_TWR*, ULLI_TWR*, ULLI_GND, ULLI_3_TWR*, ULLI_2_TWR*
Andrey Tarasov Student 2 ULLI_1_TWR, ULLI_TWR, ULLI_3_TWR, ULLI_2_TWR
Andrey Volanskiy Student 2 ULLI_2_TWR, ULLI_1_TWR, ULLI_TWR, ULLI_3_TWR
Arseny Sitnikov Student 2 ULLI_R_APP*, ULLI_TWR, ULLI_3_TWR, ULLI_2_TWR, ULLI_1_TWR
Artem Badalov Senior Student ULLL_1_APP*, ULLI_2_TWR, ULLI_1_TWR, ULLL_APP*, ULLI_TWR, ULLL_2_APP*, ULLI_3_TWR
Daniil Kayruk Student 2 ULLI_TWR, ULLI_3_TWR, ULLI_2_TWR, ULLI_1_TWR
David Markarian Student 2 ULLI_1_TWR, ULLI_TWR, ULLI_3_TWR, ULLI_2_TWR
Denis Makosov Senior Student ULLI_1_TWR, ULLI_TWR, ULLI_3_TWR, ULLI_2_TWR
Dmitrii Ermakov Student 2 ULLI_TWR*, ULLI_3_TWR*, ULLI_2_TWR*, ULLI_1_TWR*
Dmitry Bugaichuk Student 2 ULLI_2_TWR, ULLL_1_APP*, ULLI_1_TWR, ULLL_APP*, ULLI_TWR, ULLI_3_TWR, ULLL_2_APP*
Grigoriy Novikov Student ULLI_GND
Johan Nasstrom Student 2 ULLI_2_TWR, ULLI_1_TWR, ULLI_TWR, ULLI_3_TWR
Maks Moldenhauer Student ULLI_GND
Mikhail Ilyushchenko Student 2 ULLI_GND
Nikita Voytko Senior Student ULLL_2_APP, ULLL_1_APP, ULLL_APP
Oleg Alov Student 2 ULLI_3_TWR, ULLL_1_APP*, ULLI_2_TWR, ULLL_APP*, ULLI_1_TWR, ULLL_2_APP*, ULLI_TWR
Pavel Romanov Student ULLI_GND
Robert Farber Controller ULLI_TWR, ULLI_3_TWR, ULLI_2_TWR, ULLI_1_TWR
Sasha Klyucharev Student 2 ULLI_2_TWR, ULLI_1_TWR, ULLI_TWR, ULLI_3_TWR
Sofya Belyaeva Student 2 ULLI_2_TWR, ULLI_1_TWR, ULLI_TWR, ULLI_3_TWR
Vadim Kildishov Student ULLI_GND
Vitalii Gerasimov Student ULLI_GND
Yury Pushkaryov Student 2 ULLL_APP*, ULLI_TWR, ULLI_3_TWR, ULLL_2_APP*, ULLI_2_TWR, ULLL_1_APP*, ULLI_1_TWR

Аэропорты РПИ

ICAO Город Название Погода
ULLI Санкт-Петербург Пулково ULLI 010200Z VRB01MPS CAVOK 14/10 Q1021 R10R/090060 NOSIG
XLLV
ULPB Петрозаводск Бесовец ULPB 010200Z AUTO 00000MPS 9999 // NCD 15/14 Q1021 RMK QFE761/1015
ULWC Череповец Череповец ULWC 012100Z 00000MPS 9999 MIFG NSC 10/10 Q1022 R03/010063 NOSIG RMK QFE757/1009